Nebraska City, Nebraska
Current Conditions -  °F | °C
As of 7:35 AM on Sunday 23 Nov 2014 (Local Time) from KAFK Reporting Station
Moderate Rain Moderate Rain  
Wind Chill: 52°   Ceiling: 200
Heat Index: 52°   Visibility: 2.5mi
Dew Point: 52°   Wind: 8mph
Humidity: 99%   Direction: 170°S
Pressure: 29.49"   Gusts: NA
Location:  40.68°N, 95.86°W
Report Text: KAFK 231335Z AUTO 17007KT 2 1/2SM RA OVC002 11/11 A2949 RMK AO2 P0001 T01120111
Loading
Personal Weather Stations






























Interactive Weather Map New forecast layout! Learn more

10-Day Weather Forecast

Advertisements
Track Severe Weather on mobile